createdAt,value
2018-10-21T05:45:27.754Z,6.10
2018-10-21T05:48:00.156Z,6.00
2018-10-21T05:50:32.570Z,6.10
2018-10-21T05:53:04.968Z,6.00
2018-10-21T05:55:37.410Z,6.00
2018-10-21T05:58:09.805Z,6.00
2018-10-21T06:00:42.210Z,6.00
2018-10-21T06:03:14.605Z,6.00
2018-10-21T06:05:47.006Z,6.00
2018-10-21T06:08:19.410Z,6.00
2018-10-21T06:10:51.814Z,6.00
2018-10-21T06:13:24.214Z,5.90
2018-10-21T06:15:56.656Z,6.00
2018-10-21T06:18:29.029Z,6.00
2018-10-21T06:21:01.435Z,6.00
2018-10-21T06:23:33.847Z,6.00
2018-10-21T06:26:06.354Z,6.00
2018-10-21T06:28:38.769Z,6.10
2018-10-21T06:31:11.176Z,6.10
2018-10-21T06:33:43.645Z,6.10
2018-10-21T06:36:15.991Z,6.20
2018-10-21T06:38:48.389Z,6.20
2018-10-21T06:41:20.827Z,6.30
2018-10-21T06:43:53.219Z,6.30
2018-10-21T06:46:25.614Z,6.40
2018-10-21T06:48:58.023Z,6.40
2018-10-21T06:51:30.434Z,6.50
2018-10-21T06:54:02.862Z,6.50
2018-10-21T06:56:35.313Z,6.50
2018-10-21T06:59:07.678Z,6.60
2018-10-21T07:01:40.080Z,6.60
2018-10-21T07:04:12.590Z,6.70
2018-10-21T07:06:44.886Z,6.80
2018-10-21T07:09:17.300Z,6.90
2018-10-21T07:11:49.698Z,6.90
2018-10-21T07:14:22.114Z,7.00
2018-10-21T07:16:54.539Z,7.10
2018-10-21T07:19:26.971Z,7.20
2018-10-21T07:21:59.440Z,7.20
2018-10-21T07:24:31.811Z,7.40
2018-10-21T07:27:04.699Z,7.40
2018-10-21T07:29:37.106Z,7.50
2018-10-21T07:32:09.493Z,7.60
2018-10-21T07:34:41.902Z,7.60
2018-10-21T07:37:14.332Z,7.60
2018-10-21T07:39:46.751Z,7.70
2018-10-21T07:42:19.147Z,7.80
2018-10-21T07:44:51.575Z,7.80
2018-10-21T07:47:23.977Z,7.90
2018-10-21T07:49:56.390Z,7.90
2018-10-21T07:52:28.787Z,8.00
2018-10-21T07:55:01.210Z,8.00
2018-10-21T07:57:33.598Z,8.00
2018-10-21T08:00:06.010Z,8.00
2018-10-21T08:02:38.402Z,8.10
2018-10-21T08:05:22.187Z,8.10
2018-10-21T08:15:07.143Z,8.20
2018-10-21T08:17:39.535Z,8.40
2018-10-21T08:20:11.946Z,8.50
2018-10-21T08:22:44.365Z,8.60
2018-10-21T08:25:16.789Z,8.60
2018-10-21T08:27:49.433Z,8.70
2018-10-21T08:30:21.870Z,8.80
2018-10-21T08:32:54.257Z,8.90
2018-10-21T08:35:26.679Z,9.00
2018-10-21T08:37:59.078Z,9.10
2018-10-21T08:40:31.490Z,9.20
2018-10-21T08:43:04.262Z,9.20
2018-10-21T08:45:36.682Z,9.30
2018-10-21T08:48:09.088Z,9.30
2018-10-21T08:50:41.510Z,9.40
2018-10-21T08:53:13.914Z,9.40
2018-10-21T08:55:46.400Z,9.40
2018-10-21T08:58:18.861Z,9.50
2018-10-21T09:00:51.262Z,9.50
2018-10-21T09:03:23.675Z,9.60
2018-10-21T09:05:56.080Z,9.60
2018-10-21T09:08:28.473Z,9.70
2018-10-21T09:11:00.933Z,9.70
2018-10-21T09:13:33.288Z,9.80
2018-10-21T09:16:05.723Z,9.80
2018-10-21T09:18:38.110Z,9.90
2018-10-21T09:21:10.510Z,9.90
2018-10-21T09:23:42.911Z,10.00
2018-10-21T09:26:15.350Z,10.00
2018-10-21T09:28:47.750Z,10.10
2018-10-21T09:31:20.163Z,10.10
2018-10-21T09:33:52.546Z,10.10
2018-10-21T09:36:24.958Z,10.20
2018-10-21T09:38:57.354Z,10.30
2018-10-21T09:41:29.767Z,10.40
2018-10-21T09:44:02.182Z,10.40
2018-10-21T09:46:34.684Z,10.50
2018-10-21T09:49:07.151Z,10.50
2018-10-21T09:51:39.638Z,10.60
2018-10-21T09:54:12.035Z,10.70
2018-10-21T09:56:44.463Z,10.80
2018-10-21T09:59:16.850Z,10.90
2018-10-21T10:01:49.275Z,10.90
2018-10-21T10:04:21.756Z,11.00
2018-10-21T10:06:54.143Z,11.10
2018-10-21T10:09:26.522Z,11.10
2018-10-21T10:11:59.014Z,11.20
2018-10-21T10:14:31.406Z,11.20
2018-10-21T10:17:04.076Z,11.30
2018-10-21T10:19:36.467Z,11.30
2018-10-21T10:22:08.892Z,11.40
2018-10-21T10:24:41.315Z,11.50
2018-10-21T10:27:13.716Z,11.60
2018-10-21T10:29:46.131Z,11.60
2018-10-21T10:32:18.530Z,11.60
2018-10-21T10:34:50.921Z,11.70
2018-10-21T10:37:23.344Z,11.70
2018-10-21T10:39:55.818Z,11.80
2018-10-21T10:42:28.199Z,11.90
2018-10-21T10:45:00.596Z,12.00
2018-10-21T10:47:33.010Z,12.00
2018-10-21T10:50:06.845Z,12.10
2018-10-21T10:52:39.247Z,12.10
2018-10-21T10:55:11.979Z,12.20
2018-10-21T10:57:44.356Z,12.20
2018-10-21T11:00:16.841Z,12.30
2018-10-21T11:02:49.455Z,12.30
2018-10-21T11:05:21.848Z,12.40
2018-10-21T11:07:54.324Z,12.50
2018-10-21T11:10:26.706Z,12.50
2018-10-21T11:12:59.125Z,12.50
2018-10-21T11:15:32.509Z,12.60
2018-10-21T11:18:04.918Z,12.60
2018-10-21T11:20:37.330Z,12.70
2018-10-21T11:23:09.736Z,12.80
2018-10-21T11:25:42.130Z,12.80
2018-10-21T11:28:14.625Z,12.90
2018-10-21T11:30:46.970Z,12.90
2018-10-21T11:33:19.376Z,13.00
2018-10-21T11:35:51.780Z,13.10
2018-10-21T11:38:24.194Z,13.20
2018-10-21T11:40:56.583Z,13.20
2018-10-21T11:43:28.997Z,13.30
2018-10-21T11:46:01.467Z,13.30
2018-10-21T11:48:33.822Z,13.40
2018-10-21T11:51:06.228Z,13.40
2018-10-21T11:53:38.629Z,13.50
2018-10-21T11:56:11.035Z,13.60
2018-10-21T11:58:43.430Z,13.60
2018-10-21T12:01:15.909Z,13.70
2018-10-21T12:03:48.258Z,13.70
2018-10-21T12:06:20.653Z,13.80
2018-10-21T12:08:53.334Z,13.80
2018-10-21T12:11:25.718Z,13.90
2018-10-21T12:13:58.106Z,13.90
2018-10-21T12:16:30.494Z,13.90
2018-10-21T12:19:02.919Z,13.90
2018-10-21T12:21:35.318Z,14.00
2018-10-21T12:24:07.742Z,14.00
2018-10-21T12:26:40.146Z,14.10
2018-10-21T12:29:12.593Z,14.10
2018-10-21T12:31:45.223Z,14.20
2018-10-21T12:34:17.702Z,14.20
2018-10-21T12:36:50.018Z,14.20
2018-10-21T12:39:22.427Z,14.30
2018-10-21T12:41:54.810Z,14.30
2018-10-21T12:44:27.232Z,14.30
2018-10-21T12:46:59.647Z,14.30
2018-10-21T12:49:32.055Z,14.30
2018-10-21T12:52:04.769Z,14.40
2018-10-21T12:54:37.256Z,14.40
2018-10-21T12:57:09.582Z,14.40
2018-10-21T12:59:41.981Z,14.40
2018-10-21T13:02:14.381Z,14.50
2018-10-21T13:04:46.802Z,14.50
2018-10-21T13:07:19.327Z,14.60
2018-10-21T13:09:51.605Z,14.50
2018-10-21T13:12:23.997Z,14.60
2018-10-21T13:14:56.411Z,14.60
2018-10-21T13:17:28.801Z,14.70
2018-10-21T13:20:01.258Z,14.70
2018-10-21T13:22:33.645Z,14.70
2018-10-21T13:25:06.071Z,14.80
2018-10-21T13:27:38.471Z,14.80
2018-10-21T13:30:10.877Z,14.80
2018-10-21T13:32:43.310Z,14.80
2018-10-21T13:35:15.707Z,14.90
2018-10-21T13:37:48.110Z,14.80
2018-10-21T13:40:20.610Z,14.80
2018-10-21T13:42:52.921Z,14.90
2018-10-21T13:45:25.329Z,14.80
2018-10-21T13:47:57.750Z,14.90
2018-10-21T13:50:30.154Z,14.90
2018-10-21T13:53:02.648Z,14.90
2018-10-21T13:55:35.011Z,14.90
2018-10-21T13:58:07.500Z,14.90
2018-10-21T14:00:39.910Z,14.90
2018-10-21T14:03:12.261Z,14.90
2018-10-21T14:05:44.661Z,14.90
2018-10-21T14:08:17.082Z,14.90
2018-10-21T14:10:49.496Z,14.90
2018-10-21T14:13:21.983Z,14.90
2018-10-21T14:15:54.436Z,14.90
2018-10-21T14:18:26.829Z,14.90
2018-10-21T14:20:59.231Z,15.00
2018-10-21T14:23:31.638Z,15.00
2018-10-21T14:26:04.570Z,14.90
2018-10-21T14:28:37.021Z,14.90
2018-10-21T14:31:09.410Z,15.00
2018-10-21T14:33:41.854Z,14.90
2018-10-21T14:36:14.332Z,14.90
2018-10-21T14:38:46.694Z,14.90
2018-10-21T14:41:19.090Z,14.90
2018-10-21T14:43:51.497Z,14.90
2018-10-21T14:46:23.904Z,15.00
2018-10-21T14:48:56.303Z,14.90
2018-10-21T14:51:28.695Z,14.90
2018-10-21T14:54:01.211Z,14.90
2018-10-21T14:56:33.607Z,14.80
2018-10-21T14:59:06.015Z,14.90
2018-10-21T15:01:38.405Z,14.90
2018-10-21T15:04:10.910Z,14.90
2018-10-21T15:06:43.210Z,14.80
2018-10-21T15:09:15.661Z,14.80
2018-10-21T15:11:48.033Z,14.80
2018-10-21T15:14:20.435Z,14.80
2018-10-21T15:16:52.850Z,14.70
2018-10-21T15:19:25.264Z,14.70
2018-10-21T15:22:04.859Z,14.70
2018-10-21T15:24:37.254Z,14.70
2018-10-21T15:27:09.671Z,14.80
2018-10-21T15:29:42.087Z,14.70
2018-10-21T15:32:14.515Z,14.70
2018-10-21T15:34:46.966Z,14.70
2018-10-21T15:37:19.314Z,14.70
2018-10-21T15:39:51.841Z,14.70
2018-10-21T15:42:24.194Z,14.60
2018-10-21T15:44:56.582Z,14.60
2018-10-21T15:47:29.035Z,14.50
2018-10-21T15:50:01.461Z,14.50
2018-10-21T15:52:33.838Z,14.40
2018-10-21T15:55:06.847Z,14.40
2018-10-21T15:57:39.234Z,14.30
2018-10-21T16:00:11.655Z,14.30
2018-10-21T16:02:44.115Z,14.20
2018-10-21T16:05:16.465Z,14.20
2018-10-21T16:07:48.866Z,14.10
2018-10-21T16:10:21.557Z,14.00
2018-10-21T16:12:53.966Z,14.00
2018-10-21T16:15:26.399Z,14.00
2018-10-21T16:17:58.802Z,14.00
2018-10-21T16:20:31.227Z,13.90
2018-10-21T16:23:03.723Z,13.80
2018-10-21T16:25:36.294Z,13.80
2018-10-21T16:28:08.581Z,13.70
2018-10-21T16:30:41.002Z,13.60
2018-10-21T16:33:13.402Z,13.60
2018-10-21T16:35:46.107Z,13.50
2018-10-21T16:38:18.531Z,13.40
2018-10-21T16:40:51.024Z,13.40
2018-10-21T16:43:23.419Z,13.30
2018-10-21T16:45:55.832Z,13.30
2018-10-21T16:48:28.218Z,13.20
2018-10-21T16:51:00.712Z,13.20
2018-10-21T16:53:33.322Z,13.10
2018-10-21T16:56:05.740Z,13.00
2018-10-21T16:58:38.146Z,13.00
2018-10-21T17:01:10.643Z,12.90
2018-10-21T17:03:43.145Z,12.90
2018-10-21T17:06:15.410Z,12.90
2018-10-21T17:08:47.998Z,12.80
2018-10-21T17:11:20.386Z,12.80
2018-10-21T17:13:52.726Z,12.80
2018-10-21T17:16:25.150Z,12.80
2018-10-21T17:18:57.590Z,12.80
2018-10-21T17:21:29.969Z,12.80
2018-10-21T17:24:02.387Z,12.70
2018-10-21T17:26:34.789Z,12.70
2018-10-21T17:29:07.192Z,12.70
2018-10-21T17:31:39.593Z,12.70
2018-10-21T17:34:12.015Z,12.70
2018-10-21T17:36:44.418Z,12.80
2018-10-21T17:39:16.810Z,12.80
2018-10-21T17:41:49.218Z,12.70
2018-10-21T17:44:21.603Z,12.70
2018-10-21T17:46:54.004Z,12.60
2018-10-21T17:49:26.414Z,12.60
2018-10-21T17:51:58.891Z,12.50
2018-10-21T17:54:31.230Z,12.50
2018-10-21T17:57:03.655Z,12.50
2018-10-21T17:59:36.075Z,12.40
2018-10-21T18:02:08.503Z,12.40
2018-10-21T18:04:40.898Z,12.40
2018-10-21T18:07:13.347Z,12.40
2018-10-21T18:09:45.746Z,12.30
2018-10-21T18:12:18.202Z,12.20
2018-10-21T18:14:50.605Z,12.20
2018-10-21T18:17:23.085Z,12.10
2018-10-21T18:19:55.677Z,12.00
2018-10-21T18:22:28.271Z,11.90
2018-10-21T18:25:00.850Z,11.90
2018-10-21T18:27:33.531Z,11.80
2018-10-21T18:30:07.395Z,11.70
2018-10-21T18:32:40.018Z,11.70
2018-10-21T18:35:12.809Z,11.60
2018-10-21T18:37:45.356Z,11.50
2018-10-21T18:40:17.846Z,11.50
2018-10-21T18:42:50.255Z,11.40
2018-10-21T18:45:22.653Z,11.30
2018-10-21T18:47:55.059Z,11.30
2018-10-21T18:50:27.457Z,11.20
2018-10-21T18:52:59.862Z,11.20
2018-10-21T18:55:32.272Z,11.10
2018-10-21T18:58:04.897Z,11.10
2018-10-21T19:00:37.289Z,11.10
2018-10-21T19:03:09.712Z,11.00
2018-10-21T19:05:42.119Z,10.90
2018-10-21T19:08:14.802Z,10.90
2018-10-21T19:10:47.211Z,10.80
2018-10-21T19:13:19.692Z,10.70
2018-10-21T19:15:52.034Z,10.70
2018-10-21T19:18:24.438Z,10.60
2018-10-21T19:20:56.857Z,10.60
2018-10-21T19:23:29.259Z,10.60
2018-10-21T19:26:01.706Z,10.60
2018-10-21T19:28:34.150Z,10.60
2018-10-21T19:31:06.645Z,10.60
2018-10-21T19:33:41.631Z,10.50
